sensor_id;sensor_type;location;lat;lon;timestamp;pressure;altitude;pressure_sealevel;temperature;humidity
11268;BME280;49397;47.474;9.416;2022-08-19T00:01:51;95109.56;;;16.83;100.00
11268;BME280;49397;47.474;9.416;2022-08-19T00:04:22;95113.44;;;16.82;100.00
11268;BME280;49397;47.474;9.416;2022-08-19T00:06:48;95109.97;;;16.85;100.00
11268;BME280;49397;47.474;9.416;2022-08-19T00:09:15;95106.44;;;16.85;100.00
11268;BME280;49397;47.474;9.416;2022-08-19T00:11:42;95084.91;;;16.83;100.00
11268;BME280;49397;47.474;9.416;2022-08-19T00:14:10;95093.38;;;16.78;100.00
11268;BME280;49397;47.474;9.416;2022-08-19T00:16:37;95099.31;;;16.80;99.69
11268;BME280;49397;47.474;9.416;2022-08-19T00:19:04;95098.88;;;16.78;100.00
11268;BME280;49397;47.474;9.416;2022-08-19T00:21:30;95087.91;;;16.78;99.64
11268;BME280;49397;47.474;9.416;2022-08-19T00:23:56;95084.38;;;16.78;100.00
11268;BME280;49397;47.474;9.416;2022-08-19T00:26:26;95100.44;;;16.79;100.00
11268;BME280;49397;47.474;9.416;2022-08-19T00:28:52;95100.34;;;16.76;100.00
11268;BME280;49397;47.474;9.416;2022-08-19T00:31:18;95102.41;;;16.79;100.00
11268;BME280;49397;47.474;9.416;2022-08-19T00:33:43;95105.47;;;16.77;100.00
11268;BME280;49397;47.474;9.416;2022-08-19T00:36:10;95109.47;;;16.80;100.00
11268;BME280;49397;47.474;9.416;2022-08-19T00:38:38;95108.56;;;16.76;100.00
11268;BME280;49397;47.474;9.416;2022-08-19T00:41:06;95109.72;;;16.75;100.00
11268;BME280;49397;47.474;9.416;2022-08-19T00:43:32;95107.44;;;16.77;100.00
11268;BME280;49397;47.474;9.416;2022-08-19T00:45:58;95101.97;;;16.77;100.00
11268;BME280;49397;47.474;9.416;2022-08-19T00:48:23;95101.53;;;16.75;100.00
11268;BME280;49397;47.474;9.416;2022-08-19T00:50:50;95098.06;;;16.78;100.00
11268;BME280;49397;47.474;9.416;2022-08-19T00:53:20;95097.34;;;16.81;100.00
11268;BME280;49397;47.474;9.416;2022-08-19T00:55:48;95104.84;;;16.84;100.00
11268;BME280;49397;47.474;9.416;2022-08-19T00:58:17;95104.44;;;16.82;100.00
11268;BME280;49397;47.474;9.416;2022-08-19T01:00:46;95099.00;;;16.85;100.00
11268;BME280;49397;47.474;9.416;2022-08-19T01:03:15;95106.09;;;16.86;100.00
11268;BME280;49397;47.474;9.416;2022-08-19T01:05:43;95094.41;;;16.89;100.00
11268;BME280;49397;47.474;9.416;2022-08-19T01:08:09;95090.94;;;16.92;100.00
11268;BME280;49397;47.474;9.416;2022-08-19T01:10:39;95074.50;;;16.92;100.00
11268;BME280;49397;47.474;9.416;2022-08-19T01:13:05;95082.00;;;16.95;100.00
11268;BME280;49397;47.474;9.416;2022-08-19T01:15:40;95090.31;;;16.99;100.00
11268;BME280;49397;47.474;9.416;2022-08-19T01:18:09;95099.34;;;16.99;100.00
11268;BME280;49397;47.474;9.416;2022-08-19T01:20:37;95081.28;;;16.98;100.00
11268;BME280;49397;47.474;9.416;2022-08-19T01:23:04;95077.47;;;17.03;100.00
11268;BME280;49397;47.474;9.416;2022-08-19T01:25:35;95079.00;;;17.00;100.00
11268;BME280;49397;47.474;9.416;2022-08-19T01:28:02;95075.09;;;17.01;100.00
11268;BME280;49397;47.474;9.416;2022-08-19T01:30:32;95084.13;;;17.02;100.00
11268;BME280;49397;47.474;9.416;2022-08-19T01:32:58;95097.91;;;17.05;100.00
11268;BME280;49397;47.474;9.416;2022-08-19T01:35:27;95092.25;;;16.98;100.00
11268;BME280;49397;47.474;9.416;2022-08-19T01:37:58;95088.78;;;17.01;100.00
11268;BME280;49397;47.474;9.416;2022-08-19T01:40:27;95097.53;;;17.07;100.00
11268;BME280;49397;47.474;9.416;2022-08-19T01:42:54;95097.00;;;17.01;100.00
11268;BME280;49397;47.474;9.416;2022-08-19T01:45:22;95094.63;;;17.00;100.00
11268;BME280;49397;47.474;9.416;2022-08-19T01:47:48;95086.84;;;17.02;100.00
11268;BME280;49397;47.474;9.416;2022-08-19T01:50:14;95081.38;;;17.02;100.00
11268;BME280;49397;47.474;9.416;2022-08-19T01:52:42;95076.63;;;16.99;100.00
11268;BME280;49397;47.474;9.416;2022-08-19T01:55:13;95073.78;;;16.95;100.00
11268;BME280;49397;47.474;9.416;2022-08-19T01:57:42;95074.69;;;16.99;100.00
11268;BME280;49397;47.474;9.416;2022-08-19T02:00:12;95072.06;;;17.06;100.00
11268;BME280;49397;47.474;9.416;2022-08-19T02:02:40;95076.97;;;16.97;100.00
11268;BME280;49397;47.474;9.416;2022-08-19T02:05:05;95070.34;;;16.98;100.00
11268;BME280;49397;47.474;9.416;2022-08-19T02:07:33;95056.34;;;17.03;100.00
11268;BME280;49397;47.474;9.416;2022-08-19T02:10:02;95049.34;;;17.06;100.00
11268;BME280;49397;47.474;9.416;2022-08-19T02:12:28;95048.63;;;17.09;100.00
11268;BME280;49397;47.474;9.416;2022-08-19T02:14:54;95069.84;;;17.12;100.00
11268;BME280;49397;47.474;9.416;2022-08-19T02:17:19;95067.03;;;17.08;100.00
11268;BME280;49397;47.474;9.416;2022-08-19T02:19:45;95055.63;;;17.06;100.00
11268;BME280;49397;47.474;9.416;2022-08-19T02:22:11;95062.75;;;17.11;100.00
11268;BME280;49397;47.474;9.416;2022-08-19T02:24:37;95058.09;;;17.11;100.00
11268;BME280;49397;47.474;9.416;2022-08-19T02:27:04;95050.31;;;17.13;100.00
11268;BME280;49397;47.474;9.416;2022-08-19T02:29:29;95054.63;;;17.14;100.00
11268;BME280;49397;47.474;9.416;2022-08-19T02:31:55;95059.16;;;17.07;100.00
11268;BME280;49397;47.474;9.416;2022-08-19T02:34:21;95061.91;;;17.07;100.00
11268;BME280;49397;47.474;9.416;2022-08-19T02:36:46;95070.91;;;17.07;100.00
11268;BME280;49397;47.474;9.416;2022-08-19T02:39:12;95071.34;;;17.09;100.00
11268;BME280;49397;47.474;9.416;2022-08-19T02:41:38;95061.91;;;17.07;100.00
11268;BME280;49397;47.474;9.416;2022-08-19T02:44:04;95059.94;;;17.07;100.00
11268;BME280;49397;47.474;9.416;2022-08-19T02:46:31;95073.59;;;17.04;100.00
11268;BME280;49397;47.474;9.416;2022-08-19T02:49:03;95060.25;;;17.02;100.00
11268;BME280;49397;47.474;9.416;2022-08-19T02:51:36;95059.44;;;17.02;100.00
11268;BME280;49397;47.474;9.416;2022-08-19T02:54:03;95059.88;;;17.04;100.00
11268;BME280;49397;47.474;9.416;2022-08-19T02:56:29;95065.00;;;17.05;100.00
11268;BME280;49397;47.474;9.416;2022-08-19T02:58:57;95052.22;;;16.94;100.00
11268;BME280;49397;47.474;9.416;2022-08-19T03:01:30;95053.88;;;16.79;100.00
11268;BME280;49397;47.474;9.416;2022-08-19T03:03:57;95060.97;;;16.80;100.00
11268;BME280;49397;47.474;9.416;2022-08-19T03:06:23;95054.94;;;16.75;100.00
11268;BME280;49397;47.474;9.416;2022-08-19T03:08:49;95036.84;;;16.70;100.00
11268;BME280;49397;47.474;9.416;2022-08-19T03:11:30;95053.94;;;16.83;100.00
11268;BME280;49397;47.474;9.416;2022-08-19T03:13:57;95058.72;;;16.86;100.00
11268;BME280;49397;47.474;9.416;2022-08-19T03:16:25;95060.81;;;16.92;100.00
11268;BME280;49397;47.474;9.416;2022-08-19T03:18:52;95059.97;;;16.88;100.00
11268;BME280;49397;47.474;9.416;2022-08-19T03:21:21;95061.63;;;16.93;100.00
11268;BME280;49397;47.474;9.416;2022-08-19T03:23:47;95061.25;;;16.94;100.00
11268;BME280;49397;47.474;9.416;2022-08-19T03:26:12;95065.13;;;16.93;100.00
11268;BME280;49397;47.474;9.416;2022-08-19T03:28:43;95057.72;;;16.94;100.00
11268;BME280;49397;47.474;9.416;2022-08-19T03:31:13;95069.47;;;16.94;100.00
11268;BME280;49397;47.474;9.416;2022-08-19T03:33:39;95060.81;;;16.92;100.00
11268;BME280;49397;47.474;9.416;2022-08-19T03:36:09;95049.41;;;16.90;100.00
11268;BME280;49397;47.474;9.416;2022-08-19T03:38:37;95050.13;;;16.87;100.00
11268;BME280;49397;47.474;9.416;2022-08-19T03:41:05;95035.22;;;16.85;100.00
11268;BME280;49397;47.474;9.416;2022-08-19T03:43:33;95044.66;;;16.87;100.00
11268;BME280;49397;47.474;9.416;2022-08-19T03:46:04;95037.06;;;16.81;100.00
11268;BME280;49397;47.474;9.416;2022-08-19T03:48:31;95035.13;;;16.81;100.00
11268;BME280;49397;47.474;9.416;2022-08-19T03:50:57;95032.03;;;16.83;100.00
11268;BME280;49397;47.474;9.416;2022-08-19T03:53:25;95031.94;;;16.79;100.00
11268;BME280;49397;47.474;9.416;2022-08-19T03:55:51;95024.91;;;16.78;100.00
11268;BME280;49397;47.474;9.416;2022-08-19T03:58:18;95024.63;;;16.83;100.00
11268;BME280;49397;47.474;9.416;2022-08-19T04:00:43;95008.09;;;16.80;100.00
11268;BME280;49397;47.474;9.416;2022-08-19T04:03:09;95016.31;;;16.80;100.00
11268;BME280;49397;47.474;9.416;2022-08-19T04:05:34;95019.06;;;16.80;100.00
11268;BME280;49397;47.474;9.416;2022-08-19T04:08:00;95015.31;;;16.88;100.00
11268;BME280;49397;47.474;9.416;2022-08-19T04:10:27;95017.25;;;16.87;100.00
11268;BME280;49397;47.474;9.416;2022-08-19T04:12:53;95012.94;;;16.86;100.00
11268;BME280;49397;47.474;9.416;2022-08-19T04:15:19;95015.69;;;16.86;100.00
11268;BME280;49397;47.474;9.416;2022-08-19T04:17:46;95006.72;;;16.89;100.00
11268;BME280;49397;47.474;9.416;2022-08-19T04:20:11;95020.00;;;16.87;100.00
11268;BME280;49397;47.474;9.416;2022-08-19T04:22:37;95025.03;;;16.85;100.00
11268;BME280;49397;47.474;9.416;2022-08-19T04:25:02;95038.72;;;16.85;100.00
11268;BME280;49397;47.474;9.416;2022-08-19T04:27:28;95035.63;;;16.87;100.00
11268;BME280;49397;47.474;9.416;2022-08-19T04:29:54;95044.16;;;16.82;100.00
11268;BME280;49397;47.474;9.416;2022-08-19T04:32:20;95051.22;;;16.83;100.00
11268;BME280;49397;47.474;9.416;2022-08-19T04:34:46;95050.00;;;16.80;100.00
11268;BME280;49397;47.474;9.416;2022-08-19T04:37:11;95050.03;;;16.84;100.00
11268;BME280;49397;47.474;9.416;2022-08-19T04:39:38;95057.91;;;16.85;100.00
11268;BME280;49397;47.474;9.416;2022-08-19T04:42:23;95067.81;;;16.90;100.00
11268;BME280;49397;47.474;9.416;2022-08-19T04:45:09;95061.88;;;16.88;100.00
11268;BME280;49397;47.474;9.416;2022-08-19T04:47:40;95070.13;;;16.88;100.00
11268;BME280;49397;47.474;9.416;2022-08-19T04:50:07;95059.59;;;16.90;100.00
11268;BME280;49397;47.474;9.416;2022-08-19T04:52:33;95057.13;;;16.85;100.00
11268;BME280;49397;47.474;9.416;2022-08-19T04:54:59;95067.09;;;16.93;100.00
11268;BME280;49397;47.474;9.416;2022-08-19T04:57:25;95062.38;;;16.93;100.00
11268;BME280;49397;47.474;9.416;2022-08-19T04:59:57;95068.66;;;18.64;99.80
11268;BME280;49397;47.474;9.416;2022-08-19T05:02:23;95075.84;;;18.68;92.53
11268;BME280;49397;47.474;9.416;2022-08-19T05:04:50;95081.25;;;18.91;92.08
11268;BME280;49397;47.474;9.416;2022-08-19T05:07:15;95089.47;;;18.91;91.73
11268;BME280;49397;47.474;9.416;2022-08-19T05:09:41;95083.22;;;19.20;88.55
11268;BME280;49397;47.474;9.416;2022-08-19T05:12:07;95088.84;;;19.01;87.86
11268;BME280;49397;47.474;9.416;2022-08-19T05:14:33;95091.09;;;18.92;88.40
11268;BME280;49397;47.474;9.416;2022-08-19T05:17:00;95083.16;;;19.42;85.75
11268;BME280;49397;47.474;9.416;2022-08-19T05:19:26;95096.00;;;19.35;86.07
11268;BME280;49397;47.474;9.416;2022-08-19T05:22:10;95087.75;;;19.68;83.58
11268;BME280;49397;47.474;9.416;2022-08-19T05:24:59;95093.66;;;20.07;81.79
11268;BME280;49397;47.474;9.416;2022-08-19T05:27:25;95082.13;;;19.94;81.42
11268;BME280;49397;47.474;9.416;2022-08-19T05:29:51;95091.28;;;20.05;80.16
11268;BME280;49397;47.474;9.416;2022-08-19T05:32:16;95089.47;;;18.91;86.19
11268;BME280;49397;47.474;9.416;2022-08-19T05:34:41;95099.00;;;18.45;89.19
11268;BME280;49397;47.474;9.416;2022-08-19T05:37:07;95102.72;;;18.10;91.86
11268;BME280;49397;47.474;9.416;2022-08-19T05:39:35;95100.38;;;17.90;93.76
11268;BME280;49397;47.474;9.416;2022-08-19T05:42:05;95098.78;;;17.66;95.35
11268;BME280;49397;47.474;9.416;2022-08-19T05:44:34;95103.25;;;17.55;96.95
11268;BME280;49397;47.474;9.416;2022-08-19T05:47:01;95099.16;;;17.46;97.94
11268;BME280;49397;47.474;9.416;2022-08-19T05:49:28;95099.78;;;17.39;99.80
11268;BME280;49397;47.474;9.416;2022-08-19T05:51:54;95087.50;;;17.33;100.00
11268;BME280;49397;47.474;9.416;2022-08-19T05:54:21;95085.50;;;17.30;100.00
11268;BME280;49397;47.474;9.416;2022-08-19T05:56:50;95084.63;;;17.26;100.00
11268;BME280;49397;47.474;9.416;2022-08-19T05:59:16;95088.16;;;17.27;100.00
11268;BME280;49397;47.474;9.416;2022-08-19T06:01:44;95086.94;;;17.24;100.00
11268;BME280;49397;47.474;9.416;2022-08-19T06:04:10;95088.38;;;17.18;100.00
11268;BME280;49397;47.474;9.416;2022-08-19T06:06:35;95094.94;;;17.14;100.00
11268;BME280;49397;47.474;9.416;2022-08-19T06:09:06;95094.22;;;17.17;100.00
11268;BME280;49397;47.474;9.416;2022-08-19T06:11:36;95097.31;;;17.15;100.00
11268;BME280;49397;47.474;9.416;2022-08-19T06:14:05;95093.00;;;17.14;100.00
11268;BME280;49397;47.474;9.416;2022-08-19T06:16:34;95089.41;;;17.10;100.00
11268;BME280;49397;47.474;9.416;2022-08-19T06:19:02;95085.06;;;17.09;100.00
11268;BME280;49397;47.474;9.416;2022-08-19T06:21:29;95092.06;;;17.07;100.00
11268;BME280;49397;47.474;9.416;2022-08-19T06:23:56;95083.09;;;17.10;100.00
11268;BME280;49397;47.474;9.416;2022-08-19T06:26:22;95083.91;;;17.10;100.00
11268;BME280;49397;47.474;9.416;2022-08-19T06:28:49;95086.66;;;17.10;100.00
11268;BME280;49397;47.474;9.416;2022-08-19T06:31:17;95085.41;;;17.08;100.00
11268;BME280;49397;47.474;9.416;2022-08-19T06:33:46;95086.22;;;17.08;100.00
11268;BME280;49397;47.474;9.416;2022-08-19T06:36:19;95085.50;;;17.11;100.00
11268;BME280;49397;47.474;9.416;2022-08-19T06:38:44;95085.50;;;17.11;100.00
11268;BME280;49397;47.474;9.416;2022-08-19T06:41:10;95086.66;;;17.10;100.00
11268;BME280;49397;47.474;9.416;2022-08-19T06:43:36;95086.66;;;17.10;100.00
11268;BME280;49397;47.474;9.416;2022-08-19T06:46:02;95083.75;;;17.03;100.00
11268;BME280;49397;47.474;9.416;2022-08-19T06:48:29;95092.06;;;17.07;100.00
11268;BME280;49397;47.474;9.416;2022-08-19T06:50:55;95098.31;;;17.07;100.00
11268;BME280;49397;47.474;9.416;2022-08-19T06:53:21;95103.03;;;17.07;100.00
11268;BME280;49397;47.474;9.416;2022-08-19T06:55:47;95097.94;;;17.09;100.00
11268;BME280;49397;47.474;9.416;2022-08-19T06:58:12;95103.78;;;17.07;100.00
11268;BME280;49397;47.474;9.416;2022-08-19T07:00:38;95103.44;;;17.09;100.00
11268;BME280;49397;47.474;9.416;2022-08-19T07:03:03;95112.91;;;17.11;100.00
11268;BME280;49397;47.474;9.416;2022-08-19T07:05:29;95101.84;;;17.08;100.00
11268;BME280;49397;47.474;9.416;2022-08-19T07:07:54;95108.59;;;17.10;100.00
11268;BME280;49397;47.474;9.416;2022-08-19T07:10:20;95106.16;;;17.09;100.00
11268;BME280;49397;47.474;9.416;2022-08-19T07:12:46;95111.00;;;17.15;100.00
11268;BME280;49397;47.474;9.416;2022-08-19T07:15:12;95109.00;;;17.12;100.00
11268;BME280;49397;47.474;9.416;2022-08-19T07:17:38;95108.63;;;17.14;100.00
11268;BME280;49397;47.474;9.416;2022-08-19T07:20:06;95105.31;;;17.05;100.00
11268;BME280;49397;47.474;9.416;2022-08-19T07:22:37;95117.22;;;17.12;100.00
11268;BME280;49397;47.474;9.416;2022-08-19T07:25:03;95115.28;;;17.13;100.00
11268;BME280;49397;47.474;9.416;2022-08-19T07:27:30;95112.19;;;17.14;100.00
11268;BME280;49397;47.474;9.416;2022-08-19T07:29:56;95123.06;;;17.11;100.00
11268;BME280;49397;47.474;9.416;2022-08-19T07:32:22;95122.22;;;17.07;100.00
11268;BME280;49397;47.474;9.416;2022-08-19T07:34:47;95129.25;;;17.08;100.00
11268;BME280;49397;47.474;9.416;2022-08-19T07:37:13;95120.25;;;17.07;100.00
11268;BME280;49397;47.474;9.416;2022-08-19T07:39:38;95118.66;;;17.06;100.00
11268;BME280;49397;47.474;9.416;2022-08-19T07:42:07;95105.59;;;17.00;100.00
11268;BME280;49397;47.474;9.416;2022-08-19T07:44:34;95120.53;;;17.02;100.00
11268;BME280;49397;47.474;9.416;2022-08-19T07:47:00;95113.47;;;17.01;100.00
11268;BME280;49397;47.474;9.416;2022-08-19T07:49:26;95113.31;;;16.94;100.00
11268;BME280;49397;47.474;9.416;2022-08-19T07:51:56;95111.72;;;16.93;100.00
11268;BME280;49397;47.474;9.416;2022-08-19T07:54:25;95117.28;;;16.97;100.00
11268;BME280;49397;47.474;9.416;2022-08-19T07:56:51;95106.69;;;16.95;100.00
11268;BME280;49397;47.474;9.416;2022-08-19T07:59:19;95112.88;;;16.92;100.00
11268;BME280;49397;47.474;9.416;2022-08-19T08:01:45;95118.34;;;16.92;100.00
11268;BME280;49397;47.474;9.416;2022-08-19T08:04:11;95122.75;;;16.97;100.00
11268;BME280;49397;47.474;9.416;2022-08-19T08:06:55;95108.25;;;16.96;100.00
11268;BME280;49397;47.474;9.416;2022-08-19T08:09:42;95115.44;;;17.01;100.00
11268;BME280;49397;47.474;9.416;2022-08-19T08:12:17;95126.53;;;17.08;100.00
11268;BME280;49397;47.474;9.416;2022-08-19T08:14:49;95131.19;;;17.07;100.00
11268;BME280;49397;47.474;9.416;2022-08-19T08:17:16;95142.16;;;17.07;100.00
11268;BME280;49397;47.474;9.416;2022-08-19T08:19:43;95142.16;;;17.07;100.00
11268;BME280;49397;47.474;9.416;2022-08-19T08:22:11;95149.69;;;17.10;100.00
11268;BME280;49397;47.474;9.416;2022-08-19T08:25:01;95146.78;;;17.03;100.00
11268;BME280;49397;47.474;9.416;2022-08-19T08:27:27;95157.47;;;17.08;100.00
11268;BME280;49397;47.474;9.416;2022-08-19T08:29:54;95155.59;;;17.12;100.00
11268;BME280;49397;47.474;9.416;2022-08-19T08:32:20;95155.22;;;17.14;100.00
11268;BME280;49397;47.474;9.416;2022-08-19T08:34:45;95161.53;;;17.14;100.00
11268;BME280;49397;47.474;9.416;2022-08-19T08:37:11;95155.59;;;17.12;100.00
11268;BME280;49397;47.474;9.416;2022-08-19T08:39:36;95162.81;;;17.20;100.00
11268;BME280;49397;47.474;9.416;2022-08-19T08:42:12;95158.16;;;17.21;100.00
11268;BME280;49397;47.474;9.416;2022-08-19T08:45:14;95158.06;;;17.17;100.00
11268;BME280;49397;47.474;9.416;2022-08-19T08:47:38;95152.22;;;17.19;100.00
11268;BME280;49397;47.474;9.416;2022-08-19T08:50:09;95156.41;;;17.13;100.00
11268;BME280;49397;47.474;9.416;2022-08-19T08:52:43;95171.63;;;17.10;100.00
11268;BME280;49397;47.474;9.416;2022-08-19T08:55:14;95182.91;;;17.09;100.00
11268;BME280;49397;47.474;9.416;2022-08-19T09:00:19;95180.34;;;17.16;100.00
11268;BME280;49397;47.474;9.416;2022-08-19T09:02:46;95175.59;;;17.13;100.00
11268;BME280;49397;47.474;9.416;2022-08-19T09:05:12;95181.44;;;17.11;100.00
11268;BME280;49397;47.474;9.416;2022-08-19T09:07:53;95181.34;;;17.08;100.00
11268;BME280;49397;47.474;9.416;2022-08-19T09:10:37;95181.25;;;17.04;100.00
11268;BME280;49397;47.474;9.416;2022-08-19T09:13:30;95168.97;;;16.98;100.00
11268;BME280;49397;47.474;9.416;2022-08-19T09:16:04;95174.47;;;16.98;100.00
11268;BME280;49397;47.474;9.416;2022-08-19T09:18:45;95187.09;;;17.03;100.00
11268;BME280;49397;47.474;9.416;2022-08-19T09:21:13;95189.84;;;17.03;100.00
11268;BME280;49397;47.474;9.416;2022-08-19T09:23:39;95196.03;;;17.00;100.00
11268;BME280;49397;47.474;9.416;2022-08-19T09:26:10;95185.44;;;16.98;100.00
11268;BME280;49397;47.474;9.416;2022-08-19T09:28:41;95190.47;;;16.96;100.00
11268;BME280;49397;47.474;9.416;2022-08-19T09:31:18;95192.94;;;17.01;100.00
11268;BME280;49397;47.474;9.416;2022-08-19T09:33:45;95193.38;;;17.03;100.00
11268;BME280;49397;47.474;9.416;2022-08-19T09:36:12;95189.78;;;16.99;100.00
11268;BME280;49397;47.474;9.416;2022-08-19T09:38:39;95192.53;;;16.99;100.00
11268;BME280;49397;47.474;9.416;2022-08-19T09:41:11;95191.34;;;17.00;100.00
11268;BME280;49397;47.474;9.416;2022-08-19T09:43:39;95197.56;;;16.97;100.00
11268;BME280;49397;47.474;9.416;2022-08-19T09:46:06;95193.19;;;16.96;100.00
11268;BME280;49397;47.474;9.416;2022-08-19T09:48:35;95195.25;;;16.99;100.00
11268;BME280;49397;47.474;9.416;2022-08-19T09:51:09;95199.13;;;16.98;100.00
11268;BME280;49397;47.474;9.416;2022-08-19T09:53:36;95209.28;;;16.98;100.00
11268;BME280;49397;47.474;9.416;2022-08-19T09:56:04;95206.91;;;16.96;100.00
11268;BME280;49397;47.474;9.416;2022-08-19T09:58:30;95203.53;;;17.03;100.00
11268;BME280;49397;47.474;9.416;2022-08-19T10:00:57;95208.16;;;16.99;100.00
11268;BME280;49397;47.474;9.416;2022-08-19T10:03:24;95204.09;;;16.93;100.00
11268;BME280;49397;47.474;9.416;2022-08-19T10:05:50;95207.97;;;16.92;100.00
11268;BME280;49397;47.474;9.416;2022-08-19T10:08:19;95206.91;;;16.96;100.00
11268;BME280;49397;47.474;9.416;2022-08-19T10:10:46;95205.31;;;16.95;100.00
11268;BME280;49397;47.474;9.416;2022-08-19T10:13:14;95200.13;;;16.90;100.00
11268;BME280;49397;47.474;9.416;2022-08-19T10:15:40;95202.59;;;16.95;100.00
11268;BME280;49397;47.474;9.416;2022-08-19T10:18:07;95206.91;;;16.96;100.00
11268;BME280;49397;47.474;9.416;2022-08-19T10:20:33;95215.13;;;16.96;100.00
11268;BME280;49397;47.474;9.416;2022-08-19T10:23:01;95208.88;;;16.96;100.00
11268;BME280;49397;47.474;9.416;2022-08-19T10:25:28;95215.06;;;16.93;100.00
11268;BME280;49397;47.474;9.416;2022-08-19T10:27:53;95210.34;;;16.93;100.00
11268;BME280;49397;47.474;9.416;2022-08-19T10:30:19;95214.34;;;16.96;100.00
11268;BME280;49397;47.474;9.416;2022-08-19T10:32:45;95227.34;;;16.99;100.00
11268;BME280;49397;47.474;9.416;2022-08-19T10:35:11;95223.09;;;17.01;100.00
11268;BME280;49397;47.474;9.416;2022-08-19T10:37:38;95235.13;;;16.97;100.00
11268;BME280;49397;47.474;9.416;2022-08-19T10:40:07;95234.03;;;17.01;100.00
11268;BME280;49397;47.474;9.416;2022-08-19T10:42:34;95237.06;;;16.96;100.00
11268;BME280;49397;47.474;9.416;2022-08-19T10:45:00;95240.09;;;16.91;100.00
11268;BME280;49397;47.474;9.416;2022-08-19T10:47:25;95238.06;;;16.88;100.00
11268;BME280;49397;47.474;9.416;2022-08-19T10:49:52;95234.88;;;16.86;100.00
11268;BME280;49397;47.474;9.416;2022-08-19T10:52:36;95237.41;;;16.95;100.00
11268;BME280;49397;47.474;9.416;2022-08-19T10:55:06;95233.91;;;16.94;100.00
11268;BME280;49397;47.474;9.416;2022-08-19T10:57:50;95237.50;;;16.98;100.00
11268;BME280;49397;47.474;9.416;2022-08-19T11:00:19;95234.03;;;17.01;100.00
11268;BME280;49397;47.474;9.416;2022-08-19T11:02:45;95235.22;;;17.00;100.00
11268;BME280;49397;47.474;9.416;2022-08-19T11:05:11;95242.13;;;16.94;100.00
11268;BME280;49397;47.474;9.416;2022-08-19T11:07:38;95238.94;;;16.92;100.00
11268;BME280;49397;47.474;9.416;2022-08-19T11:10:06;95235.38;;;16.92;100.00
11268;BME280;49397;47.474;9.416;2022-08-19T11:12:31;95232.03;;;16.83;100.00
11268;BME280;49397;47.474;9.416;2022-08-19T11:14:58;95234.69;;;16.79;100.00
11268;BME280;49397;47.474;9.416;2022-08-19T11:17:24;95231.59;;;16.81;100.00
11268;BME280;49397;47.474;9.416;2022-08-19T11:19:49;95222.50;;;16.77;100.00
11268;BME280;49397;47.474;9.416;2022-08-19T11:22:15;95232.41;;;16.81;100.00
11268;BME280;49397;47.474;9.416;2022-08-19T11:24:42;95233.09;;;16.78;100.00
11268;BME280;49397;47.474;9.416;2022-08-19T11:27:08;95242.47;;;16.77;100.00
11268;BME280;49397;47.474;9.416;2022-08-19T11:29:37;95239.56;;;16.70;100.00
11268;BME280;49397;47.474;9.416;2022-08-19T11:32:06;95240.38;;;16.71;100.00
11268;BME280;49397;47.474;9.416;2022-08-19T11:34:33;95243.47;;;16.69;100.00
11268;BME280;49397;47.474;9.416;2022-08-19T11:37:01;95246.56;;;16.68;100.00
11268;BME280;49397;47.474;9.416;2022-08-19T11:39:28;95238.59;;;16.63;100.00
11268;BME280;49397;47.474;9.416;2022-08-19T11:41:57;95236.56;;;16.59;100.00
11268;BME280;49397;47.474;9.416;2022-08-19T11:44:22;95246.81;;;16.63;100.00
11268;BME280;49397;47.474;9.416;2022-08-19T11:46:48;95245.28;;;16.65;100.00
11268;BME280;49397;47.474;9.416;2022-08-19T11:49:15;95233.13;;;16.63;100.00
11268;BME280;49397;47.474;9.416;2022-08-19T11:51:42;95247.22;;;16.64;100.00
11268;BME280;49397;47.474;9.416;2022-08-19T11:54:08;95240.97;;;16.64;100.00
11268;BME280;49397;47.474;9.416;2022-08-19T11:56:36;95243.25;;;16.62;100.00
11268;BME280;49397;47.474;9.416;2022-08-19T11:59:02;95249.19;;;16.64;100.00
11268;BME280;49397;47.474;9.416;2022-08-19T12:01:28;95246.88;;;16.66;100.00
11268;BME280;49397;47.474;9.416;2022-08-19T12:03:55;95241.34;;;16.63;100.00
11268;BME280;49397;47.474;9.416;2022-08-19T12:06:27;95245.28;;;16.65;100.00
11268;BME280;49397;47.474;9.416;2022-08-19T12:08:55;95250.41;;;16.67;100.00
11268;BME280;49397;47.474;9.416;2022-08-19T12:11:21;95251.69;;;16.69;100.00
11268;BME280;49397;47.474;9.416;2022-08-19T12:13:47;95249.28;;;16.68;100.00
11268;BME280;49397;47.474;9.416;2022-08-19T12:16:17;95249.81;;;16.73;100.00
11268;BME280;49397;47.474;9.416;2022-08-19T12:18:44;95250.97;;;16.72;100.00
11268;BME280;49397;47.474;9.416;2022-08-19T12:21:16;95265.97;;;16.78;100.00
11268;BME280;49397;47.474;9.416;2022-08-19T12:23:43;95270.22;;;16.76;100.00
11268;BME280;49397;47.474;9.416;2022-08-19T12:26:10;95269.06;;;16.77;100.00
11268;BME280;49397;47.474;9.416;2022-08-19T12:28:36;95257.22;;;16.73;100.00
11268;BME280;49397;47.474;9.416;2022-08-19T12:31:02;95264.81;;;16.79;100.00
11268;BME280;49397;47.474;9.416;2022-08-19T12:33:28;95266.34;;;16.77;100.00
11268;BME280;49397;47.474;9.416;2022-08-19T12:35:54;95273.03;;;16.79;100.00
11268;BME280;49397;47.474;9.416;2022-08-19T12:38:20;95266.25;;;16.73;100.00
11268;BME280;49397;47.474;9.416;2022-08-19T12:40:49;95252.44;;;16.70;100.00
11268;BME280;49397;47.474;9.416;2022-08-19T12:43:17;95259.25;;;16.60;100.00
11268;BME280;49397;47.474;9.416;2022-08-19T12:45:43;95253.59;;;16.53;100.00
11268;BME280;49397;47.474;9.416;2022-08-19T12:48:10;95261.13;;;16.56;100.00
11268;BME280;49397;47.474;9.416;2022-08-19T12:50:39;95265.06;;;16.58;100.00
11268;BME280;49397;47.474;9.416;2022-08-19T12:53:04;95264.72;;;16.60;100.00
11268;BME280;49397;47.474;9.416;2022-08-19T12:55:30;95269.06;;;16.61;100.00
11268;BME280;49397;47.474;9.416;2022-08-19T12:57:55;95267.22;;;16.65;100.00